sensor_id;sensor_type;location;lat;lon;timestamp;pressure;altitude;pressure_sealevel;temperature;humidity
72038;BME280;59900;50.788;12.904;2023-06-01T00:00:07;97890.41;;;15.35;59.82
72038;BME280;59900;50.788;12.904;2023-06-01T00:02:35;97885.97;;;15.29;60.06
72038;BME280;59900;50.788;12.904;2023-06-01T00:05:01;97891.09;;;15.24;60.35
72038;BME280;59900;50.788;12.904;2023-06-01T00:07:26;97887.31;;;15.13;60.59
72038;BME280;59900;50.788;12.904;2023-06-01T00:09:51;97891.69;;;15.01;60.65
72038;BME280;59900;50.788;12.904;2023-06-01T00:12:16;97886.66;;;14.93;61.26
72038;BME280;59900;50.788;12.904;2023-06-01T00:14:42;97891.63;;;14.83;61.55
72038;BME280;59900;50.788;12.904;2023-06-01T00:17:07;97887.19;;;14.77;61.65
72038;BME280;59900;50.788;12.904;2023-06-01T00:19:32;97895.75;;;14.72;62.21
72038;BME280;59900;50.788;12.904;2023-06-01T00:22:00;97894.53;;;14.75;61.84
72038;BME280;59900;50.788;12.904;2023-06-01T00:24:25;97894.91;;;14.78;61.80
72038;BME280;59900;50.788;12.904;2023-06-01T00:26:51;97887.00;;;14.72;61.81
72038;BME280;59900;50.788;12.904;2023-06-01T00:29:16;97895.75;;;14.72;61.81
72038;BME280;59900;50.788;12.904;2023-06-01T00:31:42;97900.41;;;14.77;61.77
72038;BME280;59900;50.788;12.904;2023-06-01T00:34:07;97892.22;;;14.85;61.60
72038;BME280;59900;50.788;12.904;2023-06-01T00:36:33;97891.53;;;14.96;61.56
72038;BME280;59900;50.788;12.904;2023-06-01T00:38:58;97895.53;;;15.05;61.75
72038;BME280;59900;50.788;12.904;2023-06-01T00:41:28;97892.75;;;15.00;61.48
72038;BME280;59900;50.788;12.904;2023-06-01T00:43:53;97888.38;;;14.81;61.97
72038;BME280;59900;50.788;12.904;2023-06-01T00:46:18;97883.94;;;14.75;62.27
72038;BME280;59900;50.788;12.904;2023-06-01T00:48:44;97886.03;;;14.66;63.05
72038;BME280;59900;50.788;12.904;2023-06-01T00:51:09;97876.75;;;14.50;63.23
72038;BME280;59900;50.788;12.904;2023-06-01T00:53:36;97875.38;;;14.41;63.77
72038;BME280;59900;50.788;12.904;2023-06-01T00:56:02;97880.72;;;14.28;64.29
72038;BME280;59900;50.788;12.904;2023-06-01T00:58:27;97889.50;;;14.22;63.90
72038;BME280;59900;50.788;12.904;2023-06-01T01:00:53;97882.41;;;14.10;64.83
72038;BME280;59900;50.788;12.904;2023-06-01T01:03:19;97874.16;;;13.93;65.00
72038;BME280;59900;50.788;12.904;2023-06-01T01:05:46;97880.91;;;13.82;65.71
72038;BME280;59900;50.788;12.904;2023-06-01T01:08:18;97879.69;;;13.78;65.96
72038;BME280;59900;50.788;12.904;2023-06-01T01:10:51;97873.19;;;13.74;65.82
72038;BME280;59900;50.788;12.904;2023-06-01T01:13:26;97870.59;;;13.68;65.84
72038;BME280;59900;50.788;12.904;2023-06-01T01:16:11;97874.81;;;13.69;65.67
72038;BME280;59900;50.788;12.904;2023-06-01T01:18:55;97863.69;;;13.60;65.77
72038;BME280;59900;50.788;12.904;2023-06-01T01:21:26;97873.22;;;13.61;65.80
72038;BME280;59900;50.788;12.904;2023-06-01T01:24:21;97878.69;;;13.79;65.32
72038;BME280;59900;50.788;12.904;2023-06-01T01:27:17;97873.19;;;13.81;64.78
72038;BME280;59900;50.788;12.904;2023-06-01T01:29:52;97873.59;;;13.78;64.72
72038;BME280;59900;50.788;12.904;2023-06-01T01:32:19;97862.84;;;13.79;65.10
72038;BME280;59900;50.788;12.904;2023-06-01T01:34:45;97866.91;;;13.75;64.80
72038;BME280;59900;50.788;12.904;2023-06-01T01:37:12;97868.72;;;13.75;64.86
72038;BME280;59900;50.788;12.904;2023-06-01T01:39:37;97868.31;;;13.78;64.72
72038;BME280;59900;50.788;12.904;2023-06-01T01:42:02;97872.56;;;13.79;64.71
72038;BME280;59900;50.788;12.904;2023-06-01T01:44:28;97870.13;;;13.77;64.54
72038;BME280;59900;50.788;12.904;2023-06-01T01:47:00;97870.53;;;13.74;64.69
72038;BME280;59900;50.788;12.904;2023-06-01T01:49:39;97873.59;;;13.71;65.18
72038;BME280;59900;50.788;12.904;2023-06-01T01:52:12;97870.78;;;13.66;65.09
72038;BME280;59900;50.788;12.904;2023-06-01T01:54:43;97870.78;;;13.60;65.22
72038;BME280;59900;50.788;12.904;2023-06-01T01:57:09;97859.44;;;13.46;65.95
72038;BME280;59900;50.788;12.904;2023-06-01T01:59:35;97855.81;;;13.40;65.93
72038;BME280;59900;50.788;12.904;2023-06-01T02:02:01;97855.22;;;13.32;66.20
72038;BME280;59900;50.788;12.904;2023-06-01T02:04:27;97852.16;;;13.28;66.49
72038;BME280;59900;50.788;12.904;2023-06-01T02:06:53;97848.72;;;13.28;66.53
72038;BME280;59900;50.788;12.904;2023-06-01T02:09:18;97852.56;;;13.25;66.62
72038;BME280;59900;50.788;12.904;2023-06-01T02:11:43;97846.06;;;13.28;66.49
72038;BME280;59900;50.788;12.904;2023-06-01T02:14:09;97841.19;;;13.25;66.41
72038;BME280;59900;50.788;12.904;2023-06-01T02:16:34;97844.25;;;13.22;66.62
72038;BME280;59900;50.788;12.904;2023-06-01T02:18:59;97846.69;;;13.17;66.68
72038;BME280;59900;50.788;12.904;2023-06-01T02:21:25;97844.06;;;13.17;66.91
72038;BME280;59900;50.788;12.904;2023-06-01T02:23:51;97841.81;;;13.14;66.85
72038;BME280;59900;50.788;12.904;2023-06-01T02:26:16;97833.91;;;13.14;66.85
72038;BME280;59900;50.788;12.904;2023-06-01T02:28:43;97838.38;;;13.20;66.77
72038;BME280;59900;50.788;12.904;2023-06-01T02:31:09;97844.25;;;13.28;66.61
72038;BME280;59900;50.788;12.904;2023-06-01T02:33:34;97836.31;;;13.35;66.21
72038;BME280;59900;50.788;12.904;2023-06-01T02:36:00;97841.97;;;13.45;66.02
72038;BME280;59900;50.788;12.904;2023-06-01T02:38:25;97835.47;;;13.54;65.84
72038;BME280;59900;50.788;12.904;2023-06-01T02:40:51;97830.59;;;13.58;65.56
72038;BME280;59900;50.788;12.904;2023-06-01T02:43:16;97837.28;;;13.60;65.62
72038;BME280;59900;50.788;12.904;2023-06-01T02:45:41;97834.03;;;13.58;65.57
72038;BME280;59900;50.788;12.904;2023-06-01T02:48:07;97835.25;;;13.56;65.62
72038;BME280;59900;50.788;12.904;2023-06-01T02:50:32;97829.56;;;13.59;65.47
72038;BME280;59900;50.788;12.904;2023-06-01T02:52:57;97829.34;;;13.60;65.60
72038;BME280;59900;50.788;12.904;2023-06-01T02:55:22;97833.22;;;13.58;65.81
72038;BME280;59900;50.788;12.904;2023-06-01T02:57:48;97830.19;;;13.54;65.79
72038;BME280;59900;50.788;12.904;2023-06-01T03:00:13;97832.00;;;13.54;65.77
72038;BME280;59900;50.788;12.904;2023-06-01T03:02:45;97825.94;;;13.46;66.00
72038;BME280;59900;50.788;12.904;2023-06-01T03:05:11;97826.94;;;13.45;65.81
72038;BME280;59900;50.788;12.904;2023-06-01T03:07:43;97822.09;;;13.36;66.25
72038;BME280;59900;50.788;12.904;2023-06-01T03:10:08;97824.78;;;13.23;66.56
72038;BME280;59900;50.788;12.904;2023-06-01T03:12:34;97823.75;;;13.17;66.90
72038;BME280;59900;50.788;12.904;2023-06-01T03:15:00;97820.53;;;13.09;67.33
72038;BME280;59900;50.788;12.904;2023-06-01T03:17:25;97821.09;;;12.98;68.27
72038;BME280;59900;50.788;12.904;2023-06-01T03:19:50;97828.41;;;12.89;68.29
72038;BME280;59900;50.788;12.904;2023-06-01T03:22:16;97832.47;;;12.78;68.24
72038;BME280;59900;50.788;12.904;2023-06-01T03:24:41;97838.16;;;12.75;68.74
72038;BME280;59900;50.788;12.904;2023-06-01T03:27:07;97837.53;;;12.73;68.70
72038;BME280;59900;50.788;12.904;2023-06-01T03:29:33;97836.13;;;12.64;69.14
72038;BME280;59900;50.788;12.904;2023-06-01T03:31:58;97836.31;;;12.56;69.32
72038;BME280;59900;50.788;12.904;2023-06-01T03:34:24;97836.09;;;12.51;69.40
72038;BME280;59900;50.788;12.904;2023-06-01T03:36:50;97838.94;;;12.50;69.87
72038;BME280;59900;50.788;12.904;2023-06-01T03:39:15;97839.75;;;12.50;69.52
72038;BME280;59900;50.788;12.904;2023-06-01T03:41:42;97837.72;;;12.52;69.84
72038;BME280;59900;50.788;12.904;2023-06-01T03:44:09;97833.44;;;12.51;69.73
72038;BME280;59900;50.788;12.904;2023-06-01T03:46:34;97832.41;;;12.39;70.06
72038;BME280;59900;50.788;12.904;2023-06-01T03:49:00;97840.72;;;12.29;70.51
72038;BME280;59900;50.788;12.904;2023-06-01T03:51:25;97843.72;;;12.20;70.91
72038;BME280;59900;50.788;12.904;2023-06-01T03:53:51;97840.06;;;12.14;71.01
72038;BME280;59900;50.788;12.904;2023-06-01T03:56:16;97837.44;;;12.14;70.89
72038;BME280;59900;50.788;12.904;2023-06-01T03:58:42;97827.69;;;12.21;70.90
72038;BME280;59900;50.788;12.904;2023-06-01T04:01:07;97831.78;;;12.30;70.57
72038;BME280;59900;50.788;12.904;2023-06-01T04:03:33;97835.66;;;12.34;70.37
72038;BME280;59900;50.788;12.904;2023-06-01T04:05:58;97837.69;;;12.39;70.27
72038;BME280;59900;50.788;12.904;2023-06-01T04:08:27;97833.63;;;12.36;69.99
72038;BME280;59900;50.788;12.904;2023-06-01T04:10:52;97834.84;;;12.34;70.28
72038;BME280;59900;50.788;12.904;2023-06-01T04:13:18;97829.38;;;12.35;70.16
72038;BME280;59900;50.788;12.904;2023-06-01T04:15:44;97834.03;;;12.33;70.48
72038;BME280;59900;50.788;12.904;2023-06-01T04:18:10;97835.84;;;12.26;70.82
72038;BME280;59900;50.788;12.904;2023-06-01T04:20:35;97838.88;;;12.30;70.83
72038;BME280;59900;50.788;12.904;2023-06-01T04:23:00;97837.50;;;12.41;70.60
72038;BME280;59900;50.788;12.904;2023-06-01T04:25:26;97836.91;;;12.52;69.85
72038;BME280;59900;50.788;12.904;2023-06-01T04:27:51;97838.53;;;12.66;69.73
72038;BME280;59900;50.788;12.904;2023-06-01T04:30:16;97837.72;;;12.72;69.38
72038;BME280;59900;50.788;12.904;2023-06-01T04:32:43;97838.75;;;12.77;68.98
72038;BME280;59900;50.788;12.904;2023-06-01T04:35:10;97826.97;;;12.80;69.13
72038;BME280;59900;50.788;12.904;2023-06-01T04:37:37;97835.13;;;12.85;69.13
72038;BME280;59900;50.788;12.904;2023-06-01T04:40:05;97830.84;;;12.84;69.22
72038;BME280;59900;50.788;12.904;2023-06-01T04:42:35;97837.13;;;12.89;69.32
72038;BME280;59900;50.788;12.904;2023-06-01T04:45:03;97836.53;;;12.94;69.04
72038;BME280;59900;50.788;12.904;2023-06-01T04:47:30;97835.31;;;12.97;68.99
72038;BME280;59900;50.788;12.904;2023-06-01T04:49:56;97839.16;;;13.01;68.43
72038;BME280;59900;50.788;12.904;2023-06-01T04:52:22;97838.38;;;13.13;68.36
72038;BME280;59900;50.788;12.904;2023-06-01T04:54:47;97832.28;;;13.26;68.47
72038;BME280;59900;50.788;12.904;2023-06-01T04:57:13;97836.50;;;13.33;68.25
72038;BME280;59900;50.788;12.904;2023-06-01T04:59:40;97836.69;;;13.45;67.88
72038;BME280;59900;50.788;12.904;2023-06-01T05:02:06;97839.50;;;13.57;67.76
72038;BME280;59900;50.788;12.904;2023-06-01T05:04:32;97836.63;;;13.71;67.24
72038;BME280;59900;50.788;12.904;2023-06-01T05:06:57;97835.19;;;13.82;66.44
72038;BME280;59900;50.788;12.904;2023-06-01T05:09:22;97839.63;;;13.88;66.19
72038;BME280;59900;50.788;12.904;2023-06-01T05:11:47;97836.94;;;13.94;66.23
72038;BME280;59900;50.788;12.904;2023-06-01T05:14:13;97834.69;;;14.04;66.10
72038;BME280;59900;50.788;12.904;2023-06-01T05:16:38;97834.44;;;14.13;66.33
72038;BME280;59900;50.788;12.904;2023-06-01T05:19:03;97837.84;;;14.20;66.42
72038;BME280;59900;50.788;12.904;2023-06-01T05:21:28;97838.63;;;14.27;66.30
72038;BME280;59900;50.788;12.904;2023-06-01T05:23:54;97837.81;;;14.33;66.66
72038;BME280;59900;50.788;12.904;2023-06-01T05:26:19;97833.94;;;14.35;66.38
72038;BME280;59900;50.788;12.904;2023-06-01T05:28:47;97832.91;;;14.36;66.67
72038;BME280;59900;50.788;12.904;2023-06-01T05:31:12;97827.59;;;14.43;66.77
72038;BME280;59900;50.788;12.904;2023-06-01T05:33:37;97834.50;;;14.44;66.75
72038;BME280;59900;50.788;12.904;2023-06-01T05:36:03;97826.50;;;14.50;66.94
72038;BME280;59900;50.788;12.904;2023-06-01T05:38:28;97836.84;;;14.58;66.75
72038;BME280;59900;50.788;12.904;2023-06-01T05:40:54;97831.88;;;14.69;66.62
72038;BME280;59900;50.788;12.904;2023-06-01T05:43:19;97831.19;;;14.80;66.54
72038;BME280;59900;50.788;12.904;2023-06-01T05:45:44;97832.19;;;14.85;66.57
72038;BME280;59900;50.788;12.904;2023-06-01T05:48:10;97825.22;;;14.91;66.83
72038;BME280;59900;50.788;12.904;2023-06-01T05:50:38;97833.91;;;14.98;66.96
72038;BME280;59900;50.788;12.904;2023-06-01T05:53:03;97822.44;;;15.04;66.25
72038;BME280;59900;50.788;12.904;2023-06-01T05:55:29;97825.84;;;15.11;66.09
72038;BME280;59900;50.788;12.904;2023-06-01T05:57:54;97826.16;;;15.21;66.64
72038;BME280;59900;50.788;12.904;2023-06-01T06:00:19;97822.19;;;15.30;66.42
72038;BME280;59900;50.788;12.904;2023-06-01T06:02:45;97825.16;;;15.40;66.45
72038;BME280;59900;50.788;12.904;2023-06-01T06:05:10;97828.13;;;15.50;66.67
72038;BME280;59900;50.788;12.904;2023-06-01T06:07:35;97828.91;;;15.57;66.86
72038;BME280;59900;50.788;12.904;2023-06-01T06:10:02;97824.63;;;15.56;66.48
72038;BME280;59900;50.788;12.904;2023-06-01T06:12:27;97833.75;;;15.60;65.49
72038;BME280;59900;50.788;12.904;2023-06-01T06:14:53;97825.94;;;15.65;64.81
72038;BME280;59900;50.788;12.904;2023-06-01T06:17:18;97826.09;;;15.70;62.95
72038;BME280;59900;50.788;12.904;2023-06-01T06:19:44;97824.63;;;15.75;63.12
72038;BME280;59900;50.788;12.904;2023-06-01T06:22:10;97820.28;;;15.80;63.32
72038;BME280;59900;50.788;12.904;2023-06-01T06:24:36;97824.75;;;15.80;62.26
72038;BME280;59900;50.788;12.904;2023-06-01T06:27:01;97815.34;;;15.84;62.48
72038;BME280;59900;50.788;12.904;2023-06-01T06:29:27;97824.47;;;15.88;62.52
72038;BME280;59900;50.788;12.904;2023-06-01T06:31:52;97820.34;;;15.92;62.90
72038;BME280;59900;50.788;12.904;2023-06-01T06:34:17;97820.69;;;15.95;62.42
72038;BME280;59900;50.788;12.904;2023-06-01T06:36:43;97821.88;;;15.99;62.98
72038;BME280;59900;50.788;12.904;2023-06-01T06:39:08;97819.00;;;16.01;62.61
72038;BME280;59900;50.788;12.904;2023-06-01T06:41:33;97819.44;;;15.98;62.31
72038;BME280;59900;50.788;12.904;2023-06-01T06:43:58;97817.84;;;15.97;62.69
72038;BME280;59900;50.788;12.904;2023-06-01T06:46:24;97816.34;;;16.01;62.77
72038;BME280;59900;50.788;12.904;2023-06-01T06:48:49;97813.13;;;15.99;62.51
72038;BME280;59900;50.788;12.904;2023-06-01T06:51:14;97816.78;;;15.98;62.80
72038;BME280;59900;50.788;12.904;2023-06-01T06:53:39;97815.31;;;16.02;63.00
72038;BME280;59900;50.788;12.904;2023-06-01T06:56:05;97816.94;;;16.03;63.02
72038;BME280;59900;50.788;12.904;2023-06-01T06:58:30;97817.75;;;16.03;62.21
72038;BME280;59900;50.788;12.904;2023-06-01T07:00:55;97812.22;;;16.05;62.67
72038;BME280;59900;50.788;12.904;2023-06-01T07:03:21;97814.72;;;16.00;62.28
72038;BME280;59900;50.788;12.904;2023-06-01T07:05:46;97805.47;;;15.91;62.23
72038;BME280;59900;50.788;12.904;2023-06-01T07:08:12;97815.47;;;15.89;62.40
72038;BME280;59900;50.788;12.904;2023-06-01T07:10:37;97811.22;;;15.88;62.85
72038;BME280;59900;50.788;12.904;2023-06-01T07:13:03;97806.63;;;15.95;62.56
72038;BME280;59900;50.788;12.904;2023-06-01T07:15:28;97807.25;;;15.97;62.48
72038;BME280;59900;50.788;12.904;2023-06-01T07:17:53;97809.53;;;15.93;61.17
72038;BME280;59900;50.788;12.904;2023-06-01T07:20:18;97808.72;;;15.93;61.21
72038;BME280;59900;50.788;12.904;2023-06-01T07:22:44;97795.22;;;15.94;61.73
72038;BME280;59900;50.788;12.904;2023-06-01T07:25:09;97797.59;;;16.02;62.12
72038;BME280;59900;50.788;12.904;2023-06-01T07:27:37;97795.88;;;16.08;62.13
72038;BME280;59900;50.788;12.904;2023-06-01T07:30:04;97796.69;;;16.08;61.83
72038;BME280;59900;50.788;12.904;2023-06-01T07:32:29;97794.97;;;16.14;61.73
72038;BME280;59900;50.788;12.904;2023-06-01T07:34:54;97797.63;;;16.14;61.99
72038;BME280;59900;50.788;12.904;2023-06-01T07:37:23;97796.94;;;16.18;62.07
72038;BME280;59900;50.788;12.904;2023-06-01T07:39:49;97795.56;;;16.16;61.92
72038;BME280;59900;50.788;12.904;2023-06-01T07:42:14;97791.88;;;16.17;62.00
72038;BME280;59900;50.788;12.904;2023-06-01T07:44:40;97795.13;;;16.19;62.47
72038;BME280;59900;50.788;12.904;2023-06-01T07:47:05;97792.81;;;16.22;62.27
72038;BME280;59900;50.788;12.904;2023-06-01T07:49:31;97794.34;;;16.30;62.68
72038;BME280;59900;50.788;12.904;2023-06-01T07:51:56;97795.06;;;16.37;62.89
72038;BME280;59900;50.788;12.904;2023-06-01T07:54:23;97794.47;;;16.35;62.53
72038;BME280;59900;50.788;12.904;2023-06-01T07:56:48;97784.00;;;16.40;63.14
72038;BME280;59900;50.788;12.904;2023-06-01T07:59:14;97788.16;;;16.48;63.33
72038;BME280;59900;50.788;12.904;2023-06-01T08:01:39;97786.31;;;16.48;63.04
72038;BME280;59900;50.788;12.904;2023-06-01T08:04:04;97789.09;;;16.53;62.88
72038;BME280;59900;50.788;12.904;2023-06-01T08:06:30;97791.56;;;16.55;62.92
72038;BME280;59900;50.788;12.904;2023-06-01T08:09:00;97786.16;;;16.61;62.71
72038;BME280;59900;50.788;12.904;2023-06-01T08:11:25;97789.75;;;16.67;61.47
72038;BME280;59900;50.788;12.904;2023-06-01T08:13:51;97784.78;;;16.70;61.00
72038;BME280;59900;50.788;12.904;2023-06-01T08:16:16;97792.88;;;16.75;59.06
72038;BME280;59900;50.788;12.904;2023-06-01T08:18:42;97782.47;;;16.74;58.25
72038;BME280;59900;50.788;12.904;2023-06-01T08:21:07;97783.84;;;16.76;59.16
72038;BME280;59900;50.788;12.904;2023-06-01T08:23:35;97783.19;;;16.81;58.15
72038;BME280;59900;50.788;12.904;2023-06-01T08:26:01;97782.38;;;16.80;57.27
72038;BME280;59900;50.788;12.904;2023-06-01T08:28:26;97776.38;;;16.85;58.53
72038;BME280;59900;50.788;12.904;2023-06-01T08:30:52;97768.28;;;16.92;58.95
72038;BME280;59900;50.788;12.904;2023-06-01T08:33:17;97769.81;;;16.99;59.38
72038;BME280;59900;50.788;12.904;2023-06-01T08:35:42;97768.31;;;17.03;59.32
72038;BME280;59900;50.788;12.904;2023-06-01T08:38:08;97768.44;;;17.08;58.42
72038;BME280;59900;50.788;12.904;2023-06-01T08:40:33;97764.81;;;17.14;59.15
72038;BME280;59900;50.788;12.904;2023-06-01T08:43:18;97764.50;;;17.22;57.14
72038;BME280;59900;50.788;12.904;2023-06-01T08:45:44;97766.44;;;17.27;57.45
72038;BME280;59900;50.788;12.904;2023-06-01T08:48:15;97759.75;;;17.36;57.44
72038;BME280;59900;50.788;12.904;2023-06-01T08:50:40;97754.41;;;17.48;57.03
72038;BME280;59900;50.788;12.904;2023-06-01T08:53:06;97761.44;;;17.54;55.82
72038;BME280;59900;50.788;12.904;2023-06-01T08:55:31;97758.34;;;17.57;55.39
72038;BME280;59900;50.788;12.904;2023-06-01T08:57:57;97753.13;;;17.62;56.56
72038;BME280;59900;50.788;12.904;2023-06-01T09:00:22;97755.66;;;17.68;57.06
72038;BME280;59900;50.788;12.904;2023-06-01T09:02:49;97761.78;;;17.69;56.14
72038;BME280;59900;50.788;12.904;2023-06-01T09:05:14;97757.72;;;17.78;56.67
72038;BME280;59900;50.788;12.904;2023-06-01T09:07:40;97748.81;;;17.84;57.02
72038;BME280;59900;50.788;12.904;2023-06-01T09:10:06;97746.78;;;17.91;56.92
72038;BME280;59900;50.788;12.904;2023-06-01T09:12:31;97744.00;;;17.98;57.46
72038;BME280;59900;50.788;12.904;2023-06-01T09:15:14;97741.75;;;18.06;57.77
72038;BME280;59900;50.788;12.904;2023-06-01T09:17:49;97744.03;;;18.14;57.05
72038;BME280;59900;50.788;12.904;2023-06-01T09:20:25;97739.16;;;18.23;57.47
72038;BME280;59900;50.788;12.904;2023-06-01T09:22:53;97740.53;;;18.25;58.21
72038;BME280;59900;50.788;12.904;2023-06-01T09:25:32;97743.81;;;18.32;58.10
72038;BME280;59900;50.788;12.904;2023-06-01T09:27:59;97736.75;;;18.38;57.67
72038;BME280;59900;50.788;12.904;2023-06-01T09:30:36;97738.38;;;18.39;57.38
72038;BME280;59900;50.788;12.904;2023-06-01T09:33:15;97737.88;;;18.42;57.39
72038;BME280;59900;50.788;12.904;2023-06-01T09:35:47;97744.09;;;18.47;56.71
72038;BME280;59900;50.788;12.904;2023-06-01T09:38:21;97725.91;;;18.56;56.24
72038;BME280;59900;50.788;12.904;2023-06-01T09:41:04;97723.31;;;18.61;55.22
72038;BME280;59900;50.788;12.904;2023-06-01T09:43:33;97729.34;;;18.73;55.48
72038;BME280;59900;50.788;12.904;2023-06-01T09:46:11;97720.72;;;18.83;53.60
72038;BME280;59900;50.788;12.904;2023-06-01T09:48:39;97719.50;;;18.90;54.24
72038;BME280;59900;50.788;12.904;2023-06-01T09:51:05;97712.72;;;18.99;53.97
72038;BME280;59900;50.788;12.904;2023-06-01T09:53:45;97716.56;;;19.09;52.91
72038;BME280;59900;50.788;12.904;2023-06-01T09:56:10;97713.00;;;19.20;52.75
72038;BME280;59900;50.788;12.904;2023-06-01T09:58:37;97710.53;;;19.35;53.34
72038;BME280;59900;50.788;12.904;2023-06-01T10:01:04;97710.63;;;19.40;53.23
72038;BME280;59900;50.788;12.904;2023-06-01T10:03:33;97725.94;;;19.49;50.68
72038;BME280;59900;50.788;12.904;2023-06-01T10:05:59;97711.88;;;19.54;49.89
72038;BME280;59900;50.788;12.904;2023-06-01T10:08:25;97716.22;;;19.60;49.89
72038;BME280;59900;50.788;12.904;2023-06-01T10:10:51;97709.94;;;19.71;50.81
72038;BME280;59900;50.788;12.904;2023-06-01T10:13:16;97725.38;;;19.69;49.62
72038;BME280;59900;50.788;12.904;2023-06-01T10:15:41;97701.41;;;19.69;49.62
72038;BME280;59900;50.788;12.904;2023-06-01T10:18:07;97706.81;;;19.79;50.56
72038;BME280;59900;50.788;12.904;2023-06-01T10:20:34;97708.00;;;19.88;50.92
72038;BME280;59900;50.788;12.904;2023-06-01T10:23:00;97702.19;;;19.96;49.90
72038;BME280;59900;50.788;12.904;2023-06-01T10:25:30;97699.84;;;20.00;50.28
72038;BME280;59900;50.788;12.904;2023-06-01T10:28:04;97700.41;;;20.02;50.04
72038;BME280;59900;50.788;12.904;2023-06-01T10:30:32;97700.53;;;20.17;50.23
72038;BME280;59900;50.788;12.904;2023-06-01T10:32:57;97701.22;;;20.29;48.82
72038;BME280;59900;50.788;12.904;2023-06-01T10:40:33;97686.94;;;20.45;49.27
72038;BME280;59900;50.788;12.904;2023-06-01T10:42:58;97694.44;;;20.48;47.16
72038;BME280;59900;50.788;12.904;2023-06-01T10:48:02;97688.34;;;20.53;47.55
72038;BME280;59900;50.788;12.904;2023-06-01T10:50:28;97683.31;;;20.61;47.36
72038;BME280;59900;50.788;12.904;2023-06-01T10:52:55;97691.19;;;20.78;47.22
72038;BME280;59900;50.788;12.904;2023-06-01T10:55:26;97688.56;;;20.83;41.56
72038;BME280;59900;50.788;12.904;2023-06-01T10:57:51;97683.25;;;20.88;42.62
72038;BME280;59900;50.788;12.904;2023-06-01T11:00:39;97691.00;;;20.90;45.51
72038;BME280;59900;50.788;12.904;2023-06-01T11:03:05;97690.16;;;20.84;46.19
72038;BME280;59900;50.788;12.904;2023-06-01T11:05:40;97680.53;;;20.83;44.17
72038;BME280;59900;50.788;12.904;2023-06-01T11:13:16;97669.66;;;20.90;46.54
72038;BME280;59900;50.788;12.904;2023-06-01T11:16:26;97675.25;;;20.93;46.67
72038;BME280;59900;50.788;12.904;2023-06-01T11:18:59;97682.69;;;20.86;46.95
72038;BME280;59900;50.788;12.904;2023-06-01T11:21:27;97675.75;;;20.85;46.59
72038;BME280;59900;50.788;12.904;2023-06-01T11:23:54;97666.09;;;20.84;45.35
72038;BME280;59900;50.788;12.904;2023-06-01T11:26:21;97660.31;;;20.92;45.60
72038;BME280;59900;50.788;12.904;2023-06-01T11:28:51;97661.19;;;21.08;45.26
72038;BME280;59900;50.788;12.904;2023-06-01T11:31:17;97656.97;;;21.17;46.59
72038;BME280;59900;50.788;12.904;2023-06-01T11:33:52;97652.50;;;21.33;46.40
72038;BME280;59900;50.788;12.904;2023-06-01T11:36:20;97646.69;;;21.56;46.29
72038;BME280;59900;50.788;12.904;2023-06-01T11:38:49;97644.06;;;21.71;46.15
72038;BME280;59900;50.788;12.904;2023-06-01T11:41:14;97653.97;;;21.70;45.99
72038;BME280;59900;50.788;12.904;2023-06-01T11:43:40;97649.16;;;21.72;46.86
72038;BME280;59900;50.788;12.904;2023-06-01T11:46:06;97650.22;;;21.82;46.21
72038;BME280;59900;50.788;12.904;2023-06-01T11:48:33;97643.00;;;21.72;45.36
72038;BME280;59900;50.788;12.904;2023-06-01T11:50:59;97644.88;;;21.71;45.54
72038;BME280;59900;50.788;12.904;2023-06-01T11:53:25;97648.03;;;21.53;45.08
72038;BME280;59900;50.788;12.904;2023-06-01T11:55:54;97639.72;;;21.50;46.38
72038;BME280;59900;50.788;12.904;2023-06-01T11:58:29;97633.56;;;21.39;46.59
72038;BME280;59900;50.788;12.904;2023-06-01T12:00:55;97644.94;;;21.19;44.84
72038;BME280;59900;50.788;12.904;2023-06-01T12:03:21;97639.59;;;21.19;44.88
72038;BME280;59900;50.788;12.904;2023-06-01T12:05:49;97642.59;;;21.28;46.17
72038;BME280;59900;50.788;12.904;2023-06-01T12:08:17;97631.16;;;21.43;44.83
72038;BME280;59900;50.788;12.904;2023-06-01T12:10:43;97636.81;;;21.51;43.50
72038;BME280;59900;50.788;12.904;2023-06-01T12:13:10;97634.97;;;21.67;44.34
72038;BME280;59900;50.788;12.904;2023-06-01T12:15:36;97625.63;;;21.74;44.85
72038;BME280;59900;50.788;12.904;2023-06-01T12:18:02;97638.28;;;22.09;44.86
72038;BME280;59900;50.788;12.904;2023-06-01T12:20:29;97626.47;;;22.46;43.24
72038;BME280;59900;50.788;12.904;2023-06-01T12:22:56;97627.00;;;22.73;42.66
72038;BME280;59900;50.788;12.904;2023-06-01T12:25:23;97625.34;;;22.87;42.70
72038;BME280;59900;50.788;12.904;2023-06-01T12:28:07;97623.22;;;22.94;40.85
72038;BME280;59900;50.788;12.904;2023-06-01T12:30:33;97620.81;;;22.93;41.91
72038;BME280;59900;50.788;12.904;2023-06-01T12:32:59;97617.84;;;22.94;41.77
72038;BME280;59900;50.788;12.904;2023-06-01T12:35:25;97614.38;;;22.88;41.68
72038;BME280;59900;50.788;12.904;2023-06-01T12:38:06;97606.84;;;23.01;40.57
72038;BME280;59900;50.788;12.904;2023-06-01T12:40:32;97605.00;;;22.86;39.58
72038;BME280;59900;50.788;12.904;2023-06-01T12:42:58;97608.81;;;22.65;40.50
72038;BME280;59900;50.788;12.904;2023-06-01T12:45:24;97607.75;;;22.66;41.13
72038;BME280;59900;50.788;12.904;2023-06-01T12:47:50;97599.94;;;22.69;40.29
72038;BME280;59900;50.788;12.904;2023-06-01T12:50:15;97601.78;;;22.89;39.89
72038;BME280;59900;50.788;12.904;2023-06-01T12:52:41;97604.97;;;23.01;37.10
72038;BME280;59900;50.788;12.904;2023-06-01T12:55:09;97599.84;;;23.05;36.62
72038;BME280;59900;50.788;12.904;2023-06-01T12:57:36;97589.44;;;22.93;38.13
72038;BME280;59900;50.788;12.904;2023-06-01T13:00:03;97599.91;;;22.84;38.26
72038;BME280;59900;50.788;12.904;2023-06-01T13:02:30;97595.88;;;22.92;38.83